Time;durP1;ratioP1;P1;durP2;ratioP2;P2;SDS_P1;SDS_P2;PMS_P1;PMS_P2;Temp;Humidity;BMP_temperature;BMP_pressure;BME280_temperature;BME280_humidity;BME280_pressure;Samples;Min_cycle;Max_cycle;Signal;HPM_P1;HPM_P2
2021/09/29 00:00:36;;;;;;;3.13;1.35;;;13.70;99.90;;;;;;5029639;28;20163;-62
2021/09/29 00:03:02;;;;;;;9.07;1.95;;;13.70;99.90;;;;;;5030002;28;20521;-61
2021/09/29 00:05:27;;;;;;;5.57;2.22;;;13.60;99.90;;;;;;5028195;28;20037;-62
2021/09/29 00:07:55;;;;;;;5.18;1.80;;;13.70;99.90;;;;;;5029913;28;20028;-61
2021/09/29 00:10:21;;;;;;;5.90;2.20;;;13.60;99.90;;;;;;5029631;28;20036;-61
2021/09/29 00:12:46;;;;;;;8.52;1.85;;;13.60;99.90;;;;;;5028945;28;20030;-62
2021/09/29 00:15:14;;;;;;;5.03;1.90;;;13.70;99.90;;;;;;5029945;28;20038;-61
2021/09/29 00:17:46;;;;;;;4.57;1.77;;;13.70;99.90;;;;;;5029246;28;20116;-63
2021/09/29 00:20:14;;;;;;;3.55;1.50;;;13.60;99.90;;;;;;5029014;28;20315;-61
2021/09/29 00:22:41;;;;;;;10.50;2.03;;;13.60;99.90;;;;;;5028861;28;20120;-61
2021/09/29 00:25:09;;;;;;;10.02;2.42;;;13.60;99.90;;;;;;5029459;28;20026;-61
2021/09/29 00:27:36;;;;;;;3.85;1.40;;;13.60;99.90;;;;;;5028954;28;20041;-62
2021/09/29 00:30:05;;;;;;;7.78;2.50;;;13.50;99.90;;;;;;5029250;28;20049;-62
2021/09/29 00:32:33;;;;;;;6.85;1.90;;;13.60;99.90;;;;;;5028745;28;20133;-63
2021/09/29 00:34:58;;;;;;;4.80;1.92;;;13.50;99.90;;;;;;5029537;28;20029;-61
2021/09/29 00:37:24;;;;;;;6.65;2.15;;;13.50;99.90;;;;;;5029528;28;20041;-61
2021/09/29 00:39:49;;;;;;;6.47;2.28;;;13.50;99.90;;;;;;5028330;28;20103;-61
2021/09/29 00:42:15;;;;;;;3.78;2.03;;;13.50;99.90;;;;;;5029302;28;20462;-61
2021/09/29 00:44:40;;;;;;;3.40;1.35;;;13.50;99.90;;;;;;5029225;28;20041;-62
2021/09/29 00:47:06;;;;;;;4.63;1.83;;;13.50;99.90;;;;;;5028843;28;20124;-61
2021/09/29 00:49:32;;;;;;;8.40;2.05;;;13.40;99.90;;;;;;5028893;28;20563;-62
2021/09/29 00:51:57;;;;;;;3.92;1.60;;;13.40;99.90;;;;;;5028457;28;20121;-64
2021/09/29 00:54:28;;;;;;;8.00;2.08;;;13.30;99.90;;;;;;5028926;28;20025;-63
2021/09/29 00:56:54;;;;;;;9.90;2.00;;;13.30;99.90;;;;;;5028802;28;20083;-63
2021/09/29 00:59:20;;;;;;;3.95;2.13;;;13.30;99.90;;;;;;5028813;28;20108;-62
2021/09/29 01:01:46;;;;;;;7.28;1.77;;;13.30;99.90;;;;;;5028526;28;20504;-63
2021/09/29 01:04:12;;;;;;;6.68;1.60;;;13.30;99.90;;;;;;5028679;28;20045;-63
2021/09/29 01:06:52;;;;;;;5.50;2.33;;;13.30;99.90;;;;;;5027782;28;20087;-63
2021/09/29 01:09:25;;;;;;;7.97;2.65;;;13.30;99.90;;;;;;5024826;28;20072;-61
2021/09/29 01:12:04;;;;;;;5.38;1.58;;;13.30;99.90;;;;;;5028794;28;20033;-62
2021/09/29 01:14:44;;;;;;;4.35;2.20;;;13.30;99.90;;;;;;5028504;28;20091;-63
2021/09/29 01:17:10;;;;;;;5.78;1.88;;;13.30;99.90;;;;;;5028553;28;20044;-61
2021/09/29 01:20:05;;;;;;;6.43;2.00;;;13.30;99.90;;;;;;5028433;28;20091;-61
2021/09/29 01:22:45;;;;;;;4.15;2.05;;;13.30;99.90;;;;;;5026899;28;20045;-61
2021/09/29 01:25:29;;;;;;;6.28;2.03;;;13.30;99.90;;;;;;5027733;28;20037;-61
2021/09/29 01:27:57;;;;;;;8.52;1.90;;;13.30;99.90;;;;;;5026370;28;20413;-62
2021/09/29 01:30:23;;;;;;;6.30;1.75;;;13.30;99.90;;;;;;5028078;28;20036;-64
2021/09/29 01:32:49;;;;;;;6.43;2.05;;;13.30;99.90;;;;;;5029819;28;20029;-62
2021/09/29 01:35:15;;;;;;;5.50;1.90;;;13.20;99.90;;;;;;5032529;28;20388;-62
2021/09/29 01:37:41;;;;;;;10.40;2.13;;;13.30;99.90;;;;;;5029059;28;20021;-63
2021/09/29 01:40:09;;;;;;;5.38;2.22;;;13.30;99.90;;;;;;5032365;28;20037;-61
2021/09/29 01:42:35;;;;;;;5.47;1.90;;;13.30;99.90;;;;;;5032125;28;20033;-62
2021/09/29 01:45:01;;;;;;;6.18;2.10;;;13.30;99.90;;;;;;5032514;28;20401;-63
2021/09/29 01:47:26;;;;;;;4.68;1.95;;;13.30;99.90;;;;;;5032163;28;20043;-61
2021/09/29 01:49:54;;;;;;;9.05;1.98;;;13.30;99.90;;;;;;5032171;28;20888;-61
2021/09/29 01:52:22;;;;;;;7.97;2.03;;;13.30;99.90;;;;;;5031851;28;20037;-61
2021/09/29 01:54:49;;;;;;;4.82;1.77;;;13.30;99.90;;;;;;5032383;28;20528;-60
2021/09/29 01:57:15;;;;;;;6.30;1.98;;;13.20;99.90;;;;;;5032075;28;20116;-62
2021/09/29 01:59:42;;;;;;;8.43;1.80;;;13.20;99.90;;;;;;5031957;28;20048;-63
2021/09/29 02:02:08;;;;;;;6.22;2.15;;;13.20;99.90;;;;;;5032257;28;20041;-61
2021/09/29 02:04:34;;;;;;;4.22;1.83;;;13.20;99.90;;;;;;5030383;28;20505;-62
2021/09/29 02:07:00;;;;;;;6.93;2.60;;;13.20;99.90;;;;;;5032302;28;20029;-60
2021/09/29 02:09:27;;;;;;;3.75;1.75;;;13.10;99.90;;;;;;5029925;28;20494;-63
2021/09/29 02:11:54;;;;;;;6.57;1.73;;;13.20;99.90;;;;;;5032069;28;20091;-61
2021/09/29 02:14:21;;;;;;;7.72;1.77;;;13.20;99.90;;;;;;5031535;28;20048;-61
2021/09/29 02:16:48;;;;;;;8.32;2.00;;;13.10;99.90;;;;;;5032067;28;20025;-63
2021/09/29 02:19:15;;;;;;;4.80;1.80;;;13.10;99.90;;;;;;5031583;28;20034;-62
2021/09/29 02:21:41;;;;;;;26.58;2.70;;;13.10;99.90;;;;;;5031557;28;20095;-61
2021/09/29 02:24:07;;;;;;;12.02;2.30;;;13.10;99.90;;;;;;5031953;28;20075;-61
2021/09/29 02:26:34;;;;;;;6.97;1.40;;;13.10;99.90;;;;;;5031174;28;20037;-62
2021/09/29 02:29:00;;;;;;;3.45;2.05;;;13.20;99.90;;;;;;5031640;28;20131;-62
2021/09/29 02:31:26;;;;;;;4.43;2.30;;;13.30;99.90;;;;;;5031236;28;20030;-62
2021/09/29 02:33:52;;;;;;;6.30;1.92;;;13.30;99.90;;;;;;5031655;28;20079;-61
2021/09/29 02:36:17;;;;;;;2.58;1.23;;;13.30;99.90;;;;;;5031704;28;20098;-62
2021/09/29 02:38:43;;;;;;;3.80;1.85;;;13.40;99.90;;;;;;5030795;28;20464;-63
2021/09/29 02:41:13;;;;;;;12.02;2.45;;;13.40;99.90;;;;;;5031425;28;20038;-62
2021/09/29 02:43:39;;;;;;;4.43;1.42;;;13.40;99.90;;;;;;5027213;28;20032;-61
2021/09/29 02:46:05;;;;;;;7.07;1.85;;;13.40;99.90;;;;;;5030646;28;20389;-64
2021/09/29 02:48:31;;;;;;;5.18;2.10;;;13.40;99.90;;;;;;5030219;28;20061;-63
2021/09/29 02:50:57;;;;;;;4.93;1.63;;;13.30;99.90;;;;;;5031418;28;20116;-63
2021/09/29 02:53:28;;;;;;;6.28;2.10;;;13.30;99.90;;;;;;5031078;28;20033;-62
2021/09/29 02:55:57;;;;;;;11.48;2.13;;;13.30;99.90;;;;;;5031022;28;20059;-61
2021/09/29 02:58:23;;;;;;;6.13;1.85;;;13.20;99.90;;;;;;5031109;28;20026;-61
2021/09/29 03:00:51;;;;;;;6.68;1.70;;;13.20;99.90;;;;;;5030584;28;20030;-63
2021/09/29 03:03:17;;;;;;;2.83;1.38;;;13.20;99.90;;;;;;5031016;28;20057;-63
2021/09/29 03:05:43;;;;;;;5.15;1.73;;;13.20;99.90;;;;;;5029951;28;20040;-62
2021/09/29 03:08:08;;;;;;;8.13;1.50;;;13.20;99.90;;;;;;5030277;28;20029;-63
2021/09/29 03:10:35;;;;;;;9.35;1.60;;;13.30;99.90;;;;;;5031089;28;20127;-60
2021/09/29 03:13:01;;;;;;;4.50;1.52;;;13.30;99.90;;;;;;5029251;28;20034;-62
2021/09/29 03:15:26;;;;;;;4.30;1.55;;;13.30;99.90;;;;;;5030442;28;20383;-61
2021/09/29 03:17:52;;;;;;;5.63;1.63;;;13.30;99.90;;;;;;5028851;28;20099;-62
2021/09/29 03:20:18;;;;;;;7.63;1.85;;;13.30;99.90;;;;;;5028558;28;20075;-61
2021/09/29 03:22:43;;;;;;;7.38;1.80;;;13.30;99.90;;;;;;5030227;28;20099;-62
2021/09/29 03:25:09;;;;;;;6.45;2.45;;;13.30;99.90;;;;;;5030735;28;20040;-59
2021/09/29 03:27:35;;;;;;;9.25;1.60;;;13.30;99.90;;;;;;5025450;28;20053;-59
2021/09/29 03:30:00;;;;;;;7.32;1.80;;;13.40;99.90;;;;;;5029930;28;20042;-61
2021/09/29 03:32:26;;;;;;;6.25;1.58;;;13.30;99.90;;;;;;5030567;28;20505;-60
2021/09/29 03:34:51;;;;;;;5.68;1.45;;;13.30;99.90;;;;;;5029948;28;20374;-60
2021/09/29 03:37:17;;;;;;;5.82;1.73;;;13.40;99.90;;;;;;5030495;28;20079;-60
2021/09/29 03:39:42;;;;;;;3.58;1.50;;;13.40;99.90;;;;;;5030191;28;20041;-61
2021/09/29 03:42:08;;;;;;;4.85;1.50;;;13.30;99.90;;;;;;5029938;28;20529;-60
2021/09/29 03:44:33;;;;;;;6.63;1.60;;;13.40;99.90;;;;;;5025211;28;20362;-61
2021/09/29 03:46:59;;;;;;;3.83;1.40;;;13.40;99.90;;;;;;5028496;28;20052;-61
2021/09/29 03:49:25;;;;;;;4.25;1.33;;;13.40;99.90;;;;;;5029877;28;20064;-60
2021/09/29 03:51:50;;;;;;;7.38;1.58;;;13.40;99.90;;;;;;5029474;28;20692;-63
2021/09/29 03:54:16;;;;;;;3.67;1.60;;;13.40;99.90;;;;;;5030062;28;20057;-60
2021/09/29 03:56:41;;;;;;;4.05;1.80;;;13.40;99.90;;;;;;5029589;28;20030;-59
2021/09/29 03:59:07;;;;;;;5.32;1.50;;;13.30;99.90;;;;;;5028064;28;20155;-60
2021/09/29 04:01:32;;;;;;;4.85;1.60;;;13.30;99.90;;;;;;5024435;28;20095;-61
2021/09/29 04:03:58;;;;;;;6.13;1.45;;;13.40;99.90;;;;;;5029311;28;20029;-59
2021/09/29 04:06:24;;;;;;;5.60;1.95;;;13.40;99.90;;;;;;5030024;28;20240;-61
2021/09/29 04:08:49;;;;;;;3.50;1.50;;;13.30;99.90;;;;;;5029756;28;20167;-60
2021/09/29 04:11:15;;;;;;;5.88;1.67;;;13.20;99.90;;;;;;5029232;28;20065;-61
2021/09/29 04:13:40;;;;;;;8.15;1.42;;;13.00;99.90;;;;;;5029665;28;20034;-62
2021/09/29 04:16:06;;;;;;;6.70;1.55;;;13.00;99.90;;;;;;5029264;28;20033;-61
2021/09/29 04:18:32;;;;;;;11.73;1.98;;;12.90;99.90;;;;;;5025479;28;20240;-60
2021/09/29 04:20:57;;;;;;;4.53;1.85;;;12.80;99.90;;;;;;5028732;28;20034;-60
2021/09/29 04:23:23;;;;;;;3.72;1.42;;;12.80;99.90;;;;;;5029490;28;20033;-60
2021/09/29 04:25:52;;;;;;;5.38;1.50;;;12.80;99.90;;;;;;5029651;28;20036;-63
2021/09/29 04:28:18;;;;;;;7.05;1.75;;;12.80;99.90;;;;;;5027438;28;20043;-60
2021/09/29 04:30:44;;;;;;;5.75;1.65;;;12.80;99.90;;;;;;5029982;28;20021;-60
2021/09/29 04:33:09;;;;;;;6.57;1.63;;;12.70;99.90;;;;;;5033493;28;20033;-61
2021/09/29 04:35:38;;;;;;;4.28;1.60;;;12.70;99.90;;;;;;5034496;28;20030;-60
2021/09/29 04:38:04;;;;;;;9.07;1.85;;;12.60;99.90;;;;;;5033954;28;20510;-60
2021/09/29 04:40:29;;;;;;;5.63;1.65;;;12.50;99.90;;;;;;5026446;28;20025;-60
2021/09/29 04:42:55;;;;;;;5.88;1.50;;;12.50;99.90;;;;;;5027751;28;20037;-61
2021/09/29 04:45:21;;;;;;;6.25;1.58;;;12.50;99.90;;;;;;5028937;28;20579;-60
2021/09/29 04:47:47;;;;;;;5.18;1.63;;;12.50;99.90;;;;;;5029028;28;20047;-62
2021/09/29 04:50:12;;;;;;;7.47;1.55;;;12.50;99.90;;;;;;5028460;28;20037;-60
2021/09/29 04:52:38;;;;;;;7.13;1.58;;;12.40;99.90;;;;;;5029636;28;20029;-60
2021/09/29 04:55:04;;;;;;;7.65;1.60;;;12.40;99.90;;;;;;5035580;28;20728;-59
2021/09/29 04:57:32;;;;;;;2.72;1.60;;;12.40;99.90;;;;;;5035632;28;20044;-60
2021/09/29 04:59:58;;;;;;;9.00;1.98;;;12.40;99.90;;;;;;5029920;28;20095;-60
2021/09/29 05:02:24;;;;;;;5.60;1.50;;;12.40;99.90;;;;;;5028113;28;20065;-62
2021/09/29 05:04:49;;;;;;;3.47;1.80;;;12.40;99.90;;;;;;5023201;28;20061;-61
2021/09/29 05:07:17;;;;;;;8.10;2.17;;;12.40;99.90;;;;;;5023102;28;20077;-61
2021/09/29 05:09:45;;;;;;;4.68;1.98;;;12.40;99.90;;;;;;5023993;28;20057;-61
2021/09/29 05:12:23;;;;;;;5.03;1.38;;;12.40;99.90;;;;;;5023617;28;20033;-61
2021/09/29 05:14:49;;;;;;;4.97;1.92;;;12.40;99.90;;;;;;5025139;28;20045;-61
2021/09/29 05:17:14;;;;;;;8.85;1.67;;;12.50;99.90;;;;;;5025549;28;20041;-63
2021/09/29 05:19:40;;;;;;;9.75;2.00;;;12.40;99.90;;;;;;5025842;28;20285;-65
2021/09/29 05:22:07;;;;;;;5.32;1.60;;;12.50;99.90;;;;;;5025029;28;20034;-62
2021/09/29 05:24:32;;;;;;;5.95;1.60;;;12.50;99.90;;;;;;5026019;28;20033;-60
2021/09/29 05:26:58;;;;;;;3.42;1.55;;;12.50;99.90;;;;;;5025731;28;20156;-63
2021/09/29 05:29:25;;;;;;;6.43;1.88;;;12.50;99.90;;;;;;5023330;28;20041;-62
2021/09/29 05:31:51;;;;;;;9.13;1.70;;;12.50;99.90;;;;;;5025519;28;20029;-62
2021/09/29 05:34:17;;;;;;;3.28;1.20;;;12.50;99.90;;;;;;5025370;28;20030;-62
2021/09/29 05:36:45;;;;;;;5.30;1.73;;;12.50;99.90;;;;;;5025711;28;20087;-62
2021/09/29 05:39:11;;;;;;;6.90;1.80;;;12.50;99.90;;;;;;5025544;28;20345;-60
2021/09/29 05:41:37;;;;;;;7.53;1.42;;;12.50;99.90;;;;;;5025963;28;20041;-61
2021/09/29 05:44:03;;;;;;;4.03;1.45;;;12.60;99.90;;;;;;5025505;28;20052;-59
2021/09/29 05:46:30;;;;;;;4.90;1.23;;;12.50;99.90;;;;;;5021881;28;20041;-62
2021/09/29 05:48:55;;;;;;;3.83;1.85;;;12.50;99.90;;;;;;5025411;28;20040;-62
2021/09/29 05:51:21;;;;;;;9.80;1.30;;;12.50;99.90;;;;;;5025347;28;20405;-60
2021/09/29 05:53:47;;;;;;;5.85;1.58;;;12.50;99.90;;;;;;5025383;28;20079;-63
2021/09/29 05:56:14;;;;;;;2.25;1.17;;;12.50;99.90;;;;;;5025455;28;20030;-60
2021/09/29 05:58:40;;;;;;;3.22;0.90;;;12.50;99.90;;;;;;5025048;28;20045;-60
2021/09/29 06:01:06;;;;;;;9.57;1.63;;;12.50;99.90;;;;;;5025249;28;20033;-60
2021/09/29 06:03:32;;;;;;;4.90;1.45;;;12.50;99.90;;;;;;5025050;28;20095;-60
2021/09/29 06:05:58;;;;;;;2.88;1.20;;;12.50;99.90;;;;;;5025466;28;20032;-62
2021/09/29 06:08:23;;;;;;;5.13;2.15;;;12.50;99.90;;;;;;5023126;28;20029;-62
2021/09/29 06:10:49;;;;;;;4.80;1.42;;;12.50;99.90;;;;;;5027719;28;20044;-60
2021/09/29 06:13:15;;;;;;;8.13;1.90;;;12.50;99.90;;;;;;5030612;28;20693;-64
2021/09/29 06:15:46;;;;;;;4.88;1.50;;;12.50;99.90;;;;;;5025338;28;20037;-62
2021/09/29 06:18:13;;;;;;;4.70;1.50;;;12.50;99.90;;;;;;5024956;28;20042;-60
2021/09/29 06:20:49;;;;;;;7.75;1.60;;;12.50;99.90;;;;;;5029306;28;20180;-64
2021/09/29 06:23:16;;;;;;;4.97;1.10;;;12.60;99.90;;;;;;5027838;28;20017;-60
2021/09/29 06:25:42;;;;;;;5.28;1.30;;;12.70;99.90;;;;;;5028048;28;20029;-61
2021/09/29 06:28:07;;;;;;;4.65;1.33;;;12.70;99.90;;;;;;5028428;28;20156;-64
2021/09/29 06:30:33;;;;;;;3.80;1.30;;;12.80;99.90;;;;;;5028770;28;20037;-60
2021/09/29 06:32:59;;;;;;;3.28;1.02;;;12.80;99.90;;;;;;5028613;28;20032;-60
2021/09/29 06:35:25;;;;;;;5.50;1.10;;;12.90;99.90;;;;;;5028641;28;20025;-60
2021/09/29 06:37:51;;;;;;;5.30;1.20;;;13.00;99.90;;;;;;5028707;28;20040;-61
2021/09/29 06:40:18;;;;;;;7.03;1.45;;;13.00;99.90;;;;;;5028285;28;20029;-61
2021/09/29 06:42:46;;;;;;;2.95;1.38;;;13.10;99.90;;;;;;5027987;28;20045;-60
2021/09/29 06:45:13;;;;;;;3.55;1.05;;;13.00;99.90;;;;;;5028636;28;20120;-59
2021/09/29 06:47:40;;;;;;;5.72;1.55;;;13.10;99.90;;;;;;5026876;28;20034;-60
2021/09/29 06:50:07;;;;;;;8.93;1.65;;;13.20;99.90;;;;;;5028075;28;20045;-60
2021/09/29 06:52:33;;;;;;;3.45;1.30;;;13.10;99.90;;;;;;5027998;28;20072;-61
2021/09/29 06:54:59;;;;;;;2.53;0.90;;;13.20;99.90;;;;;;5028243;28;20041;-61
2021/09/29 06:57:24;;;;;;;7.13;1.15;;;13.20;99.90;;;;;;5026726;28;20527;-60
2021/09/29 06:59:50;;;;;;;2.78;1.00;;;13.10;99.90;;;;;;5027774;28;20040;-63
2021/09/29 07:02:16;;;;;;;3.00;1.13;;;13.10;99.90;;;;;;5027932;28;20144;-61
2021/09/29 07:04:41;;;;;;;4.43;1.00;;;13.20;99.90;;;;;;5027898;28;20045;-60
2021/09/29 07:07:07;;;;;;;5.13;1.00;;;13.20;99.90;;;;;;5028105;28;20037;-61
2021/09/29 07:09:33;;;;;;;2.83;1.13;;;13.20;99.90;;;;;;5027360;28;20041;-59
2021/09/29 07:11:58;;;;;;;5.40;1.20;;;13.10;99.90;;;;;;5026226;28;20029;-63
2021/09/29 07:14:24;;;;;;;4.10;1.08;;;13.20;99.90;;;;;;5027921;28;20061;-62
2021/09/29 07:16:51;;;;;;;5.88;0.98;;;13.10;99.90;;;;;;5027914;28;20400;-61
2021/09/29 07:19:17;;;;;;;4.97;1.55;;;13.00;99.90;;;;;;5027645;28;20056;-61
2021/09/29 07:21:42;;;;;;;3.35;0.82;;;13.00;99.90;;;;;;5027621;28;20873;-62
2021/09/29 07:24:08;;;;;;;7.95;1.50;;;12.90;99.90;;;;;;5027353;28;20029;-61
2021/09/29 07:26:34;;;;;;;6.30;1.23;;;12.90;99.90;;;;;;5026386;28;20065;-61
2021/09/29 07:29:00;;;;;;;8.00;1.38;;;12.90;99.90;;;;;;5025966;28;20393;-61
2021/09/29 07:31:27;;;;;;;7.75;1.45;;;12.90;99.90;;;;;;5025341;28;20033;-64
2021/09/29 07:33:53;;;;;;;4.90;1.65;;;12.90;99.90;;;;;;5025787;28;20133;-61
2021/09/29 07:36:19;;;;;;;7.40;1.95;;;12.90;99.90;;;;;;5027496;28;20133;-62
2021/09/29 07:38:44;;;;;;;5.40;1.58;;;12.80;99.90;;;;;;5026834;28;20099;-60
2021/09/29 07:41:10;;;;;;;3.22;1.13;;;12.80;99.90;;;;;;5026260;28;20030;-61
2021/09/29 07:43:36;;;;;;;3.55;1.67;;;12.90;99.90;;;;;;5025706;28;20536;-64
2021/09/29 07:46:01;;;;;;;4.05;1.30;;;12.90;99.90;;;;;;5027414;28;20030;-61
2021/09/29 07:48:27;;;;;;;4.63;1.80;;;12.90;99.90;;;;;;5027057;28;20060;-63
2021/09/29 07:50:54;;;;;;;4.10;1.35;;;12.90;99.90;;;;;;5027285;28;20045;-62
2021/09/29 07:53:21;;;;;;;5.03;1.48;;;12.90;99.90;;;;;;5025475;28;20056;-60
2021/09/29 07:55:47;;;;;;;6.53;1.50;;;12.90;99.90;;;;;;5027256;28;20041;-60
2021/09/29 07:58:13;;;;;;;3.53;1.27;;;12.90;99.90;;;;;;5025315;28;20761;-61
2021/09/29 08:00:38;;;;;;;10.05;1.48;;;12.90;99.90;;;;;;5027418;28;20033;-60
2021/09/29 08:03:04;;;;;;;2.70;1.27;;;12.90;99.90;;;;;;5026689;28;20045;-61
2021/09/29 08:05:31;;;;;;;9.75;1.35;;;12.90;99.90;;;;;;5026698;28;20061;-61
2021/09/29 08:07:56;;;;;;;4.88;1.33;;;12.90;99.90;;;;;;5025302;28;20688;-60
2021/09/29 08:10:22;;;;;;;5.85;1.27;;;12.80;99.90;;;;;;5026338;28;20033;-62
2021/09/29 08:12:48;;;;;;;5.35;1.10;;;12.90;99.90;;;;;;5026578;28;20033;-62
2021/09/29 08:15:15;;;;;;;7.72;1.50;;;12.80;99.90;;;;;;5026705;28;20045;-61
2021/09/29 08:17:45;;;;;;;12.80;1.65;;;12.80;99.90;;;;;;5027089;28;20037;-61
2021/09/29 08:20:12;;;;;;;4.57;1.05;;;12.80;99.90;;;;;;5025397;28;20033;-61
2021/09/29 08:22:40;;;;;;;3.30;0.77;;;12.80;99.90;;;;;;5026554;28;20045;-61
2021/09/29 08:28:54;;;;;;;3.83;0.65;;;12.60;99.90;;;;;;5003331;28;20481;-60
2021/09/29 08:30:58;;;;;;;0.45;0.20;;;12.60;99.90;;;;;;5021507;28;20034;-61
2021/09/29 08:36:15;;;;;;;3.88;0.30;;;12.50;99.90;;;;;;5024600;28;20084;-61
2021/09/29 08:38:50;;;;;;;2.17;0.60;;;12.40;99.90;;;;;;5026110;28;20102;-61
2021/09/29 08:44:00;;;;;;;0.85;0.10;;;12.40;99.90;;;;;;5028824;28;20060;-61
2021/09/29 08:46:32;;;;;;;2.20;0.20;;;12.40;99.90;;;;;;5023714;28;20069;-60
2021/09/29 08:49:27;;;;;;;1.10;0.25;;;12.50;99.90;;;;;;5025930;28;20523;-62
2021/09/29 08:54:36;;;;;;;2.63;0.20;;;12.40;99.90;;;;;;5025122;28;20033;-61
2021/09/29 09:16:37;;;;;;;0.97;0.20;;;12.50;99.90;;;;;;5024549;28;20099;-62
2021/09/29 09:19:08;;;;;;;1.30;0.28;;;12.40;99.90;;;;;;5022859;28;20859;-62
2021/09/29 09:21:37;;;;;;;2.45;0.20;;;12.40;99.90;;;;;;5025906;28;20132;-62
2021/09/29 09:24:16;;;;;;;3.20;0.40;;;12.50;99.90;;;;;;5024192;28;20107;-62
2021/09/29 09:26:45;;;;;;;1.20;0.30;;;12.50;99.90;;;;;;5025888;28;20063;-62
2021/09/29 09:29:12;;;;;;;1.88;0.20;;;12.40;99.90;;;;;;5024519;28;20406;-62
2021/09/29 09:31:39;;;;;;;1.90;0.10;;;12.50;99.90;;;;;;5025357;28;20033;-61
2021/09/29 09:34:07;;;;;;;5.57;0.22;;;12.50;99.90;;;;;;5025323;28;20017;-62
2021/09/29 09:36:39;;;;;;;2.70;0.10;;;12.60;99.90;;;;;;5025620;28;20041;-62
2021/09/29 09:39:10;;;;;;;5.07;0.22;;;12.60;99.90;;;;;;5023060;28;20034;-63
2021/09/29 09:41:36;;;;;;;0.85;0.20;;;12.60;99.90;;;;;;5023759;28;20042;-61
2021/09/29 09:44:04;;;;;;;1.00;0.10;;;12.70;99.90;;;;;;5025493;28;20033;-62
2021/09/29 09:46:30;;;;;;;0.75;0.10;;;12.70;99.90;;;;;;5041082;28;20034;-61
2021/09/29 09:49:07;;;;;;;1.95;0.40;;;12.70;99.90;;;;;;5025534;28;20034;-61
2021/09/29 09:51:48;;;;;;;1.10;0.20;;;12.70;99.90;;;;;;5023627;28;20037;-61
2021/09/29 09:54:15;;;;;;;2.15;0.40;;;12.70;99.90;;;;;;5026216;28;20064;-60
2021/09/29 09:56:45;;;;;;;2.90;0.25;;;12.70;99.90;;;;;;5029436;28;20038;-62
2021/09/29 09:59:10;;;;;;;3.30;0.20;;;12.70;99.90;;;;;;5027795;28;20030;-64
2021/09/29 10:01:36;;;;;;;0.82;0.22;;;12.60;99.90;;;;;;5028791;28;20047;-62
2021/09/29 10:04:13;;;;;;;2.45;0.50;;;12.60;99.90;;;;;;5029277;28;20041;-63
2021/09/29 10:06:40;;;;;;;5.25;0.38;;;12.50;99.90;;;;;;5027137;28;20034;-63
2021/09/29 10:28:10;;;;;;;4.32;0.30;;;11.90;99.90;;;;;;5028470;28;20040;-60
2021/09/29 10:30:41;;;;;;;1.15;0.10;;;11.80;99.90;;;;;;5029003;28;20055;-62
2021/09/29 10:33:10;;;;;;;4.63;0.32;;;11.70;99.90;;;;;;5026975;28;20079;-61
2021/09/29 10:44:02;;;;;;;1.00;0.10;;;11.70;99.90;;;;;;5028655;28;20034;-62
2021/09/29 10:46:51;;;;;;;5.25;0.55;;;11.70;99.90;;;;;;5027264;28;20056;-62
2021/09/29 11:30:34;;;;;;;7.63;0.50;;;13.40;99.90;;;;;;5030776;28;20059;-60
2021/09/29 11:33:23;;;;;;;1.17;0.40;;;13.60;99.90;;;;;;5033146;28;20041;-63
2021/09/29 12:09:07;;;;;;;4.55;0.50;;;14.80;99.90;;;;;;4991240;28;20084;-61
2021/09/29 12:11:54;;;;;;;2.03;0.60;;;14.80;99.90;;;;;;5021543;28;20084;-60
2021/09/29 12:14:20;;;;;;;1.33;0.20;;;14.80;99.90;;;;;;5028517;28;20112;-60
2021/09/29 12:16:49;;;;;;;2.75;0.30;;;14.60;99.90;;;;;;5032904;28;20030;-61
2021/09/29 12:21:53;;;;;;;5.05;0.40;;;14.60;99.90;;;;;;5033897;28;20041;-61
2021/09/29 12:24:32;;;;;;;5.03;0.10;;;14.60;99.90;;;;;;5033378;28;20585;-60
2021/09/29 12:27:00;;;;;;;3.80;0.28;;;14.60;99.90;;;;;;5033891;28;21447;-65
2021/09/29 12:38:00;;;;;;;1.17;0.20;;;14.70;99.90;;;;;;5027317;28;20359;-61
2021/09/29 12:40:27;;;;;;;6.72;0.60;;;14.60;99.90;;;;;;5030191;28;20037;-63
2021/09/29 12:43:05;;;;;;;4.47;0.10;;;14.70;99.90;;;;;;5029821;28;20171;-63
2021/09/29 12:45:37;;;;;;;2.58;0.15;;;14.80;99.90;;;;;;5030247;28;20519;-63
2021/09/29 12:48:05;;;;;;;0.93;0.30;;;14.90;99.90;;;;;;5027605;28;20037;-61
2021/09/29 12:50:42;;;;;;;2.70;0.20;;;15.10;99.90;;;;;;5038976;28;20041;-62
2021/09/29 12:55:53;;;;;;;3.13;0.52;;;15.30;99.90;;;;;;5042587;28;20052;-63
2021/09/29 12:58:19;;;;;;;3.95;0.70;;;15.30;99.90;;;;;;5031098;28;20029;-61
2021/09/29 13:00:44;;;;;;;2.15;0.20;;;15.30;99.90;;;;;;5028110;28;20060;-60
2021/09/29 13:03:10;;;;;;;3.55;0.40;;;15.20;99.90;;;;;;5027895;28;20440;-61
2021/09/29 13:05:39;;;;;;;1.70;0.40;;;15.10;99.90;;;;;;5029487;28;20041;-62
2021/09/29 13:08:05;;;;;;;2.83;0.30;;;15.00;99.90;;;;;;5017163;28;20037;-61
2021/09/29 13:10:31;;;;;;;4.60;0.30;;;14.90;99.90;;;;;;5024659;28;20093;-62
2021/09/29 13:12:56;;;;;;;5.75;0.20;;;15.10;99.90;;;;;;5028224;28;20108;-60
2021/09/29 13:15:25;;;;;;;2.20;0.30;;;15.20;99.90;;;;;;5028261;28;20033;-62
2021/09/29 13:17:52;;;;;;;1.33;0.20;;;15.10;99.90;;;;;;5029005;28;20041;-64
2021/09/29 13:20:21;;;;;;;1.35;0.05;;;15.10;99.90;;;;;;5027483;28;20508;-62
2021/09/29 13:22:53;;;;;;;2.38;0.30;;;15.00;99.90;;;;;;5027942;28;20145;-61
2021/09/29 13:38:41;;;;;;;1.40;0.63;;;15.00;99.90;;;;;;5027677;28;20052;-62
2021/09/29 13:41:07;;;;;;;1.75;0.10;;;15.20;99.90;;;;;;5031165;28;20034;-62
2021/09/29 13:43:33;;;;;;;2.15;0.10;;;15.30;99.90;;;;;;5028982;28;20037;-64
2021/09/29 13:45:58;;;;;;;1.50;0.15;;;15.30;99.90;;;;;;5029816;28;20061;-62
2021/09/29 13:48:24;;;;;;;4.88;0.20;;;15.30;99.90;;;;;;5029582;28;20044;-62
2021/09/29 13:50:49;;;;;;;3.38;0.30;;;15.40;99.90;;;;;;5030637;28;20025;-61
2021/09/29 13:53:15;;;;;;;6.15;0.30;;;15.50;99.90;;;;;;5030504;28;20065;-65
2021/09/29 13:55:43;;;;;;;1.55;0.40;;;15.60;99.90;;;;;;5030186;28;20044;-61
2021/09/29 13:58:18;;;;;;;3.05;0.30;;;15.50;99.90;;;;;;5031383;28;20056;-62
2021/09/29 14:01:09;;;;;;;6.72;0.32;;;15.40;99.90;;;;;;5029983;28;20838;-62
2021/09/29 14:30:39;;;;;;;5.65;0.30;;;14.10;99.90;;;;;;5025315;28;20732;-63
2021/09/29 14:33:16;;;;;;;5.88;0.30;;;14.10;99.90;;;;;;5027951;28;20037;-63
2021/09/29 14:35:42;;;;;;;1.55;0.40;;;14.30;99.90;;;;;;5027148;28;20033;-62
2021/09/29 14:38:10;;;;;;;2.95;0.20;;;14.40;99.90;;;;;;5027796;28;20038;-62
2021/09/29 14:40:35;;;;;;;0.95;0.30;;;14.60;99.90;;;;;;5030583;28;20497;-62
2021/09/29 14:43:01;;;;;;;2.63;0.13;;;14.90;99.90;;;;;;5031284;28;20053;-62
2021/09/29 14:45:27;;;;;;;3.17;0.47;;;15.20;99.90;;;;;;5033159;28;20033;-62
2021/09/29 14:47:52;;;;;;;5.63;0.43;;;15.40;99.90;;;;;;5033582;28;20087;-63
2021/09/29 14:50:26;;;;;;;2.35;0.20;;;15.50;99.90;;;;;;5032850;28;20029;-63
2021/09/29 14:52:57;;;;;;;2.70;0.40;;;15.60;99.90;;;;;;5031461;28;20116;-63
2021/09/29 14:55:24;;;;;;;;;;;15.50;99.90;;;;;;5032410;28;20036;-62
2021/09/29 14:57:49;;;;;;;3.15;0.32;;;15.20;99.90;;;;;;5025740;28;19919;-63
2021/09/29 15:00:16;;;;;;;2.70;0.13;;;14.70;99.90;;;;;;5025679;28;20037;-62
2021/09/29 15:02:41;;;;;;;1.27;0.20;;;14.00;99.90;;;;;;5028140;28;20061;-63
2021/09/29 15:05:07;;;;;;;2.15;0.10;;;13.50;99.90;;;;;;5026910;28;20061;-61
2021/09/29 15:07:33;;;;;;;2.65;0.35;;;13.10;99.90;;;;;;5027734;28;20045;-63
2021/09/29 15:09:59;;;;;;;1.65;0.20;;;12.80;99.90;;;;;;5028235;28;20072;-62
2021/09/29 15:12:25;;;;;;;3.72;0.30;;;12.70;99.90;;;;;;5027740;28;20029;-63
2021/09/29 15:17:35;;;;;;;2.22;0.30;;;12.70;99.90;;;;;;5037457;28;20036;-62
2021/09/29 15:49:08;;;;;;;1.23;0.30;;;12.10;99.90;;;;;;5030475;28;20061;-62
2021/09/29 15:51:54;;;;;;;7.30;1.25;;;11.90;99.90;;;;;;5027496;28;20385;-62
2021/09/29 15:54:42;;;;;;;3.17;0.32;;;11.90;99.90;;;;;;5050270;28;20507;-63
2021/09/29 16:03:06;;;;;;;1.90;0.95;;;11.80;99.90;;;;;;5025162;28;20045;-62
2021/09/29 16:05:47;;;;;;;1.48;0.30;;;11.80;99.90;;;;;;5025187;28;20053;-62
2021/09/29 16:11:47;;;;;;;3.30;0.40;;;11.60;99.90;;;;;;5036880;28;20048;-62
2021/09/29 16:32:09;;;;;;;7.47;0.88;;;11.70;99.90;;;;;;5025514;28;20064;-61
2021/09/29 16:34:44;;;;;;;7.50;0.60;;;11.70;99.90;;;;;;5030075;28;20041;-62
2021/09/29 16:37:10;;;;;;;2.08;0.30;;;11.70;99.90;;;;;;5030991;28;20079;-61
2021/09/29 16:39:36;;;;;;;2.58;0.50;;;11.60;99.90;;;;;;5030436;28;20034;-63
2021/09/29 16:42:04;;;;;;;2.35;0.25;;;11.70;99.90;;;;;;5029716;28;20596;-62
2021/09/29 16:44:29;;;;;;;1.85;0.40;;;11.70;99.90;;;;;;5029589;28;20160;-62
2021/09/29 16:46:57;;;;;;;4.78;0.40;;;11.60;99.90;;;;;;5029839;28;20171;-61
2021/09/29 16:49:27;;;;;;;2.97;0.30;;;11.60;99.90;;;;;;5026080;28;20087;-63
2021/09/29 16:54:38;;;;;;;3.58;1.05;;;11.60;99.90;;;;;;5024661;28;19924;-63
2021/09/29 16:57:11;;;;;;;3.13;0.40;;;11.60;99.90;;;;;;5025969;28;20041;-61
2021/09/29 17:02:10;;;;;;;6.13;0.40;;;11.60;99.90;;;;;;5028044;28;20037;-62